Time;durP1;ratioP1;P1;durP2;ratioP2;P2;SDS_P1;SDS_P2;PMS_P1;PMS_P2;Temp;Humidity;BMP_temperature;BMP_pressure;BME280_temperature;BME280_humidity;BME280_pressure;Samples;Min_cycle;Max_cycle;Signal;HPM_P1;HPM_P2
2021/09/01 00:01:13;;;;;;;10.77;1.83;;;16.60;99.90;;;;;;5001953;28;20415;-69
2021/09/01 00:03:39;;;;;;;8.27;1.38;;;16.60;99.90;;;;;;5001835;28;20744;-69
2021/09/01 00:06:05;;;;;;;6.22;1.65;;;16.60;99.90;;;;;;5000978;28;20042;-68
2021/09/01 00:08:31;;;;;;;9.02;1.17;;;16.60;99.90;;;;;;5005746;28;20042;-69
2021/09/01 00:10:57;;;;;;;12.57;1.70;;;16.60;99.90;;;;;;5000136;28;20034;-69
2021/09/01 00:13:23;;;;;;;7.63;1.58;;;16.60;99.90;;;;;;4986091;28;20026;-69
2021/09/01 00:15:48;;;;;;;9.55;1.90;;;16.60;99.90;;;;;;4984950;28;20045;-69
2021/09/01 00:18:14;;;;;;;11.63;1.88;;;16.60;99.90;;;;;;5000939;28;20054;-68
2021/09/01 00:20:40;;;;;;;5.57;1.25;;;16.60;99.90;;;;;;5001476;28;20084;-68
2021/09/01 00:23:05;;;;;;;9.05;1.90;;;16.60;99.90;;;;;;5002540;28;20033;-68
2021/09/01 00:25:31;;;;;;;5.22;1.20;;;16.70;99.90;;;;;;4999424;28;20027;-68
2021/09/01 00:27:56;;;;;;;10.63;1.60;;;16.60;99.90;;;;;;5002708;28;20034;-68
2021/09/01 00:30:22;;;;;;;7.13;1.63;;;16.60;99.90;;;;;;4999849;28;20066;-69
2021/09/01 00:32:47;;;;;;;6.80;1.42;;;16.60;99.90;;;;;;5005548;28;20043;-68
2021/09/01 00:35:13;;;;;;;4.95;1.85;;;16.60;99.90;;;;;;5001969;28;20505;-68
2021/09/01 00:37:39;;;;;;;8.02;1.58;;;16.60;99.90;;;;;;5000540;28;20041;-69
2021/09/01 00:40:05;;;;;;;6.32;1.35;;;16.60;99.90;;;;;;4990012;28;20046;-69
2021/09/01 00:42:34;;;;;;;14.23;2.25;;;16.60;99.90;;;;;;4999686;28;20038;-70
2021/09/01 00:45:00;;;;;;;12.30;2.55;;;16.60;99.90;;;;;;5002406;28;20038;-68
2021/09/01 00:47:26;;;;;;;6.30;1.33;;;16.60;99.90;;;;;;4999232;28;20489;-69
2021/09/01 00:49:52;;;;;;;10.32;2.10;;;16.60;99.90;;;;;;5002606;28;20033;-69
2021/09/01 00:52:18;;;;;;;8.95;1.65;;;16.60;99.90;;;;;;5000062;28;20762;-68
2021/09/01 00:54:44;;;;;;;5.38;1.42;;;16.60;99.90;;;;;;5001119;28;20034;-68
2021/09/01 00:57:10;;;;;;;9.38;1.38;;;16.50;99.90;;;;;;5000635;28;20478;-68
2021/09/01 00:59:39;;;;;;;8.02;1.70;;;16.50;99.90;;;;;;5000528;28;20046;-69
2021/09/01 01:02:05;;;;;;;8.02;1.40;;;16.50;99.90;;;;;;4984037;28;20026;-68
2021/09/01 01:04:32;;;;;;;8.23;1.50;;;16.50;99.90;;;;;;4999444;28;20038;-69
2021/09/01 01:07:16;;;;;;;15.48;2.38;;;16.50;99.90;;;;;;5000282;28;20470;-68
2021/09/01 01:09:42;;;;;;;10.90;2.30;;;16.50;99.90;;;;;;5000937;28;20487;-68
2021/09/01 01:12:13;;;;;;;8.02;1.70;;;16.50;99.90;;;;;;5001388;28;20056;-68
2021/09/01 01:14:43;;;;;;;5.72;1.42;;;16.40;99.90;;;;;;4982998;28;20125;-68
2021/09/01 01:17:11;;;;;;;9.40;1.80;;;16.50;99.90;;;;;;5000025;28;20030;-68
2021/09/01 01:19:49;;;;;;;10.00;1.48;;;16.50;99.90;;;;;;5000960;28;20406;-69
2021/09/01 01:22:16;;;;;;;10.00;2.03;;;16.50;99.90;;;;;;4999606;28;20045;-69
2021/09/01 01:24:55;;;;;;;9.98;1.80;;;16.40;99.90;;;;;;5001419;28;20030;-68
2021/09/01 01:27:32;;;;;;;14.43;2.55;;;16.40;99.90;;;;;;4998757;28;20041;-69
2021/09/01 01:30:15;;;;;;;5.43;1.45;;;16.40;99.90;;;;;;5000112;28;20027;-69
2021/09/01 01:32:44;;;;;;;11.65;2.08;;;16.40;99.90;;;;;;5007556;28;20041;-68
2021/09/01 01:35:10;;;;;;;9.35;1.60;;;16.40;99.90;;;;;;5004998;28;20038;-69
2021/09/01 01:37:39;;;;;;;6.03;1.38;;;16.40;99.90;;;;;;5004072;28;20045;-69
2021/09/01 01:40:05;;;;;;;5.97;1.50;;;16.40;99.90;;;;;;5009709;28;20030;-68
2021/09/01 01:42:41;;;;;;;6.88;1.25;;;16.40;99.90;;;;;;5003857;28;20066;-69
2021/09/01 01:45:08;;;;;;;8.25;1.50;;;16.40;99.90;;;;;;5004389;28;20753;-69
2021/09/01 01:47:33;;;;;;;6.57;1.80;;;16.40;99.90;;;;;;4986968;28;20117;-68
2021/09/01 01:50:00;;;;;;;9.73;2.05;;;16.40;99.90;;;;;;5005168;28;20133;-73
2021/09/01 01:52:25;;;;;;;11.75;2.20;;;16.40;99.90;;;;;;5003195;28;20054;-68
2021/09/01 01:54:51;;;;;;;9.05;1.55;;;16.40;99.90;;;;;;5006036;28;20513;-69
2021/09/01 01:57:16;;;;;;;7.97;1.45;;;16.40;99.90;;;;;;4984512;28;20034;-69
2021/09/01 01:59:42;;;;;;;6.55;1.65;;;16.40;99.90;;;;;;5004783;28;20073;-69
2021/09/01 02:02:08;;;;;;;7.95;1.60;;;16.40;99.90;;;;;;5003456;28;20048;-69
2021/09/01 02:04:34;;;;;;;11.48;1.77;;;16.40;99.90;;;;;;5003351;28;20479;-68
2021/09/01 02:06:59;;;;;;;11.43;2.20;;;16.40;99.90;;;;;;5003956;28;20048;-69
2021/09/01 02:09:25;;;;;;;6.13;1.65;;;16.30;99.90;;;;;;5000914;28;20035;-69
2021/09/01 02:11:50;;;;;;;13.75;2.17;;;16.40;99.90;;;;;;5005593;28;20080;-69
2021/09/01 02:14:16;;;;;;;10.02;1.70;;;16.40;99.90;;;;;;5001144;28;20022;-68
2021/09/01 02:16:41;;;;;;;7.78;1.17;;;16.40;99.90;;;;;;5004664;28;20459;-69
2021/09/01 02:19:09;;;;;;;8.88;1.65;;;16.40;99.90;;;;;;5004834;28;20518;-69
2021/09/01 02:21:35;;;;;;;13.18;2.35;;;16.40;99.90;;;;;;5003341;28;20041;-68
2021/09/01 02:24:00;;;;;;;18.25;2.33;;;16.40;99.90;;;;;;5003075;28;20035;-68
2021/09/01 02:26:27;;;;;;;8.30;1.83;;;16.40;99.90;;;;;;4986609;28;20061;-68
2021/09/01 02:28:53;;;;;;;8.07;1.80;;;16.30;99.90;;;;;;5002582;28;20506;-68
2021/09/01 02:31:19;;;;;;;7.88;1.80;;;16.30;99.90;;;;;;5004818;28;20038;-69
2021/09/01 02:33:44;;;;;;;6.45;1.67;;;16.30;99.90;;;;;;5004664;28;20037;-68
2021/09/01 02:36:10;;;;;;;9.55;1.75;;;16.30;99.90;;;;;;5003640;28;20049;-68
2021/09/01 02:38:35;;;;;;;8.52;1.70;;;16.30;99.90;;;;;;5003027;28;20601;-68
2021/09/01 02:41:01;;;;;;;7.00;1.30;;;16.30;99.90;;;;;;5008256;28;20041;-69
2021/09/01 02:43:26;;;;;;;15.40;2.28;;;16.30;99.90;;;;;;5002112;28;20510;-69
2021/09/01 02:45:52;;;;;;;8.43;1.48;;;16.30;99.90;;;;;;5003852;28;20041;-69
2021/09/01 02:48:17;;;;;;;7.35;1.90;;;16.30;99.90;;;;;;5001502;28;20027;-69
2021/09/01 02:50:43;;;;;;;10.35;2.05;;;16.30;99.90;;;;;;5004792;28;20101;-69
2021/09/01 02:53:09;;;;;;;7.10;1.52;;;16.20;99.90;;;;;;5002473;28;20058;-69
2021/09/01 02:55:34;;;;;;;8.25;1.70;;;16.20;99.90;;;;;;4985070;28;20026;-69
2021/09/01 02:58:00;;;;;;;6.85;1.58;;;16.20;99.90;;;;;;5003103;28;20030;-69
2021/09/01 03:00:25;;;;;;;8.90;1.60;;;16.20;99.90;;;;;;5001766;28;20100;-68
2021/09/01 03:02:51;;;;;;;9.52;1.75;;;16.20;99.90;;;;;;5004457;28;20034;-69
2021/09/01 03:05:16;;;;;;;10.65;1.73;;;16.20;99.90;;;;;;5001028;28;20031;-68
2021/09/01 03:07:42;;;;;;;9.45;1.95;;;16.20;99.90;;;;;;5003707;28;20526;-68
2021/09/01 03:10:08;;;;;;;9.30;1.77;;;16.20;99.90;;;;;;5004081;28;20403;-69
2021/09/01 03:12:33;;;;;;;14.65;2.55;;;16.10;99.90;;;;;;4984548;28;20405;-69
2021/09/01 03:15:00;;;;;;;11.40;2.22;;;16.10;99.90;;;;;;5002442;28;20049;-69
2021/09/01 03:17:26;;;;;;;8.30;1.35;;;16.10;99.90;;;;;;5002547;28;20471;-69
2021/09/01 03:19:51;;;;;;;15.32;2.42;;;16.10;99.90;;;;;;5001604;28;20126;-69
2021/09/01 03:22:17;;;;;;;8.75;1.85;;;16.10;99.90;;;;;;5007210;28;20076;-69
2021/09/01 03:24:43;;;;;;;7.05;1.30;;;16.20;99.90;;;;;;5007313;28;20044;-68
2021/09/01 03:27:08;;;;;;;5.75;1.52;;;16.10;99.90;;;;;;5001345;28;20620;-69
2021/09/01 03:29:34;;;;;;;8.82;1.60;;;16.10;99.90;;;;;;5005072;28;20445;-68
2021/09/01 03:31:59;;;;;;;9.70;1.65;;;16.10;99.90;;;;;;5002602;28;20039;-69
2021/09/01 03:34:25;;;;;;;6.60;1.40;;;16.10;99.90;;;;;;5000958;28;20461;-68
2021/09/01 03:36:50;;;;;;;10.18;1.70;;;16.10;99.90;;;;;;5004146;28;20053;-68
2021/09/01 03:39:16;;;;;;;10.18;2.58;;;16.10;99.90;;;;;;5005498;28;20045;-69
2021/09/01 03:41:41;;;;;;;7.40;1.27;;;16.10;99.90;;;;;;5003530;28;20045;-68
2021/09/01 03:44:07;;;;;;;8.25;1.77;;;16.10;99.90;;;;;;5001112;28;20030;-69
2021/09/01 03:46:33;;;;;;;8.80;1.30;;;16.10;99.90;;;;;;5002578;28;20033;-68
2021/09/01 03:48:58;;;;;;;7.90;2.60;;;16.10;99.90;;;;;;5002282;28;20038;-69
2021/09/01 03:51:24;;;;;;;6.72;1.65;;;16.00;99.90;;;;;;5000993;28;20041;-69
2021/09/01 03:53:49;;;;;;;4.57;1.60;;;16.00;99.90;;;;;;5002841;28;20080;-68
2021/09/01 03:56:15;;;;;;;4.45;2.00;;;16.00;99.90;;;;;;5003166;28;20445;-68
2021/09/01 03:58:41;;;;;;;6.68;2.20;;;16.00;99.90;;;;;;4999872;28;20027;-68
2021/09/01 04:01:06;;;;;;;7.90;1.25;;;16.00;99.90;;;;;;5003078;28;20030;-68
2021/09/01 04:03:32;;;;;;;6.28;1.10;;;16.00;99.90;;;;;;5001029;28;20030;-69
2021/09/01 04:05:57;;;;;;;5.60;1.40;;;16.00;99.90;;;;;;5001511;28;20097;-68
2021/09/01 04:08:23;;;;;;;4.90;1.35;;;16.00;99.90;;;;;;5002607;28;20121;-68
2021/09/01 04:10:48;;;;;;;7.97;1.67;;;16.00;99.90;;;;;;5002298;28;20755;-68
2021/09/01 04:13:14;;;;;;;8.75;1.88;;;16.00;99.90;;;;;;5000299;28;20562;-68
2021/09/01 04:15:39;;;;;;;5.95;1.30;;;15.90;99.90;;;;;;5002434;28;20115;-69
2021/09/01 04:18:05;;;;;;;6.18;1.55;;;16.00;99.90;;;;;;5000355;28;20053;-68
2021/09/01 04:20:30;;;;;;;6.32;1.90;;;16.00;99.90;;;;;;5001647;28;20045;-68
2021/09/01 04:22:56;;;;;;;8.02;1.63;;;15.90;99.90;;;;;;4999278;28;20458;-68
2021/09/01 04:25:22;;;;;;;7.05;1.70;;;15.90;99.90;;;;;;5001751;28;20117;-68
2021/09/01 04:27:47;;;;;;;10.45;2.05;;;16.00;99.90;;;;;;4999572;28;20049;-68
2021/09/01 04:30:13;;;;;;;10.75;2.10;;;16.00;99.90;;;;;;5006067;28;20022;-69
2021/09/01 04:32:38;;;;;;;7.70;1.27;;;16.00;99.90;;;;;;4998319;28;20102;-68
2021/09/01 04:35:04;;;;;;;8.95;1.98;;;16.00;99.90;;;;;;5001927;28;20034;-68
2021/09/01 04:37:30;;;;;;;5.57;1.35;;;15.90;99.90;;;;;;5000264;28;20022;-68
2021/09/01 04:39:55;;;;;;;6.70;1.50;;;15.90;99.90;;;;;;5004262;28;20041;-68
2021/09/01 04:42:21;;;;;;;4.43;1.30;;;16.00;99.90;;;;;;5000312;28;20125;-68
2021/09/01 04:44:46;;;;;;;4.28;1.27;;;15.90;99.90;;;;;;4984179;28;20100;-69
2021/09/01 04:47:12;;;;;;;5.55;1.25;;;15.90;99.90;;;;;;4999153;28;20034;-68
2021/09/01 04:49:38;;;;;;;6.75;1.17;;;15.90;99.90;;;;;;5002186;28;20026;-68
2021/09/01 04:52:04;;;;;;;11.10;1.60;;;15.90;99.90;;;;;;4999985;28;20038;-68
2021/09/01 04:54:31;;;;;;;6.32;1.58;;;15.90;99.90;;;;;;5001561;28;20034;-69
2021/09/01 04:56:57;;;;;;;8.18;1.15;;;15.90;99.90;;;;;;4999893;28;20042;-69
2021/09/01 04:59:23;;;;;;;3.60;0.85;;;15.90;99.90;;;;;;4998998;28;20041;-68
2021/09/01 05:01:48;;;;;;;5.80;1.20;;;15.90;99.90;;;;;;4999503;28;20026;-68
2021/09/01 05:04:14;;;;;;;4.55;1.38;;;15.90;99.90;;;;;;5002095;28;20109;-69
2021/09/01 05:06:39;;;;;;;10.43;1.85;;;15.90;99.90;;;;;;5001521;28;20079;-69
2021/09/01 05:09:05;;;;;;;5.05;1.00;;;15.90;99.90;;;;;;4998884;28;20038;-69
2021/09/01 05:11:30;;;;;;;7.53;1.27;;;16.00;99.90;;;;;;5001809;28;20038;-68
2021/09/01 05:13:56;;;;;;;4.53;1.38;;;16.00;99.90;;;;;;4999992;28;20038;-68
2021/09/01 05:16:22;;;;;;;5.95;1.08;;;16.00;99.90;;;;;;4999943;28;20049;-69
2021/09/01 05:18:47;;;;;;;7.90;1.70;;;16.00;99.90;;;;;;5001175;28;20034;-68
2021/09/01 05:21:13;;;;;;;4.80;0.98;;;16.00;99.90;;;;;;4999000;28;20038;-68
2021/09/01 05:23:41;;;;;;;6.28;1.30;;;16.00;99.90;;;;;;5002349;28;20423;-68
2021/09/01 05:26:07;;;;;;;11.30;1.83;;;16.00;99.90;;;;;;4997685;28;20022;-69
2021/09/01 05:28:35;;;;;;;7.40;1.33;;;16.00;99.90;;;;;;5004908;28;20034;-69
2021/09/01 05:31:03;;;;;;;5.68;1.10;;;16.00;99.90;;;;;;4999122;28;20045;-69
2021/09/01 05:33:31;;;;;;;10.90;2.78;;;16.00;99.90;;;;;;5001081;28;20026;-68
2021/09/01 05:35:58;;;;;;;5.05;1.15;;;16.00;99.90;;;;;;4998955;28;20038;-68
2021/09/01 05:38:24;;;;;;;7.55;1.40;;;16.00;99.90;;;;;;4999968;28;20039;-69
2021/09/01 05:40:51;;;;;;;3.10;1.05;;;16.00;99.90;;;;;;5002303;28;20116;-68
2021/09/01 05:43:19;;;;;;;8.38;1.92;;;16.00;99.90;;;;;;4999682;28;20088;-69
2021/09/01 05:45:46;;;;;;;4.35;0.90;;;16.10;99.90;;;;;;4983675;28;20049;-68
2021/09/01 05:48:12;;;;;;;7.65;1.00;;;16.10;99.90;;;;;;4998616;28;20027;-69
2021/09/01 05:50:42;;;;;;;6.03;0.98;;;16.10;99.90;;;;;;5001931;28;20048;-68
2021/09/01 05:53:09;;;;;;;5.57;1.00;;;16.10;99.90;;;;;;4997959;28;20141;-68
2021/09/01 05:55:41;;;;;;;4.65;1.40;;;16.10;99.90;;;;;;4997338;28;20030;-69
2021/09/01 05:58:12;;;;;;;8.40;1.35;;;16.10;99.90;;;;;;4997979;28;20037;-68
2021/09/01 06:00:40;;;;;;;6.40;1.20;;;16.10;99.90;;;;;;4999010;28;20037;-68
2021/09/01 06:03:28;;;;;;;5.10;1.20;;;16.10;99.90;;;;;;4998094;28;20027;-68
2021/09/01 06:05:56;;;;;;;6.05;1.17;;;16.20;99.90;;;;;;5000179;28;20502;-69
2021/09/01 06:08:24;;;;;;;6.97;1.50;;;16.20;99.90;;;;;;5000319;28;20038;-68
2021/09/01 06:10:53;;;;;;;4.45;1.05;;;16.20;99.90;;;;;;5000320;28;20057;-68
2021/09/01 06:13:18;;;;;;;4.00;1.55;;;16.20;99.90;;;;;;5000141;28;20125;-69
2021/09/01 06:15:44;;;;;;;6.05;1.45;;;16.20;99.90;;;;;;4999460;28;20125;-69
2021/09/01 06:18:10;;;;;;;2.65;1.25;;;16.20;99.90;;;;;;4987299;28;20048;-68
2021/09/01 06:20:37;;;;;;;8.20;1.33;;;16.30;99.90;;;;;;5002587;28;20482;-68
2021/09/01 06:23:04;;;;;;;5.43;0.90;;;16.30;99.90;;;;;;5002323;28;20037;-69
2021/09/01 06:25:30;;;;;;;5.20;1.13;;;16.30;99.90;;;;;;4987435;28;20026;-69
2021/09/01 06:27:56;;;;;;;6.47;1.42;;;16.30;99.90;;;;;;5003637;28;20033;-69
2021/09/01 06:30:22;;;;;;;10.52;1.55;;;16.30;99.90;;;;;;5006628;28;20430;-69
2021/09/01 06:32:48;;;;;;;5.20;1.00;;;16.40;99.90;;;;;;5003999;28;20026;-69
2021/09/01 06:35:14;;;;;;;6.45;1.02;;;16.40;99.90;;;;;;5002302;28;20033;-69
2021/09/01 06:37:40;;;;;;;4.15;1.20;;;16.40;99.90;;;;;;5004229;28;20030;-69
2021/09/01 06:40:07;;;;;;;8.88;1.10;;;16.40;99.90;;;;;;5004987;28;20053;-69
2021/09/01 06:42:33;;;;;;;9.50;1.80;;;16.50;99.90;;;;;;5004734;28;20030;-69
2021/09/01 06:44:59;;;;;;;6.40;1.35;;;16.60;99.90;;;;;;5006758;28;20552;-69
2021/09/01 06:47:24;;;;;;;5.18;1.00;;;16.60;99.90;;;;;;5003252;28;20044;-68
2021/09/01 06:49:50;;;;;;;6.25;1.50;;;16.60;99.90;;;;;;5004519;28;20053;-69
2021/09/01 06:52:16;;;;;;;4.32;1.55;;;16.60;99.90;;;;;;5003431;28;20034;-68
2021/09/01 06:54:41;;;;;;;12.18;1.67;;;16.70;99.90;;;;;;5002397;28;20035;-69
2021/09/01 06:57:07;;;;;;;5.03;1.30;;;16.70;99.90;;;;;;4986299;28;20073;-69
2021/09/01 06:59:32;;;;;;;7.75;1.52;;;16.80;99.90;;;;;;5001150;28;20045;-68
2021/09/01 07:01:58;;;;;;;8.70;0.95;;;16.80;99.90;;;;;;5008962;28;20121;-69
2021/09/01 07:04:23;;;;;;;3.05;1.17;;;16.80;99.90;;;;;;5010323;28;20084;-68
2021/09/01 07:06:49;;;;;;;5.75;1.13;;;16.80;99.90;;;;;;5010313;28;20033;-69
2021/09/01 07:09:14;;;;;;;6.72;1.25;;;16.90;99.90;;;;;;5008610;28;20034;-69
2021/09/01 07:11:40;;;;;;;5.78;1.10;;;16.90;99.90;;;;;;5010151;28;20490;-68
2021/09/01 07:14:06;;;;;;;3.78;1.05;;;17.00;99.90;;;;;;5002498;28;20038;-70
2021/09/01 07:16:33;;;;;;;6.30;1.20;;;17.00;99.90;;;;;;5002223;28;20059;-69
2021/09/01 07:18:58;;;;;;;3.20;1.20;;;17.00;99.90;;;;;;5001534;28;20448;-69
2021/09/01 07:21:24;;;;;;;8.95;1.30;;;17.00;99.90;;;;;;5001499;28;20041;-68
2021/09/01 07:23:50;;;;;;;11.55;1.60;;;17.00;99.90;;;;;;5002607;28;20030;-68
2021/09/01 07:26:16;;;;;;;4.78;1.33;;;17.10;99.90;;;;;;4999316;28;20045;-69
2021/09/01 07:28:41;;;;;;;3.97;0.85;;;17.10;99.90;;;;;;5004612;28;20038;-68
2021/09/01 07:31:08;;;;;;;5.78;1.38;;;17.10;99.90;;;;;;4996740;28;20436;-69
2021/09/01 07:33:35;;;;;;;10.02;1.25;;;17.20;99.90;;;;;;5000558;28;20038;-69
2021/09/01 07:36:01;;;;;;;4.82;1.00;;;17.20;99.90;;;;;;5015626;28;20034;-69
2021/09/01 07:38:26;;;;;;;5.72;1.40;;;17.20;99.90;;;;;;4996288;28;20100;-68
2021/09/01 07:40:53;;;;;;;9.35;1.33;;;17.20;99.90;;;;;;5000234;28;20439;-69
2021/09/01 07:43:19;;;;;;;5.75;1.10;;;17.20;99.90;;;;;;4996897;28;20474;-68
2021/09/01 07:45:45;;;;;;;5.38;1.33;;;17.20;99.90;;;;;;4984657;28;20053;-69
2021/09/01 07:48:15;;;;;;;5.63;0.73;;;17.30;99.90;;;;;;4998293;28;20136;-69
2021/09/01 07:50:41;;;;;;;6.10;1.40;;;17.30;99.90;;;;;;5001032;28;20026;-69
2021/09/01 07:53:07;;;;;;;5.20;1.33;;;17.30;99.90;;;;;;4996935;28;20121;-69
2021/09/01 07:55:33;;;;;;;5.95;0.88;;;17.30;99.90;;;;;;4999752;28;20120;-69
2021/09/01 07:57:59;;;;;;;6.22;0.98;;;17.30;99.90;;;;;;4996789;28;20054;-69
2021/09/01 08:00:25;;;;;;;4.50;0.88;;;17.30;99.90;;;;;;4999846;28;20116;-68
2021/09/01 08:02:52;;;;;;;8.18;1.63;;;17.40;99.90;;;;;;5000590;28;20511;-68
2021/09/01 08:05:19;;;;;;;10.10;1.48;;;17.40;99.90;;;;;;4998111;28;20034;-69
2021/09/01 08:07:45;;;;;;;6.05;1.15;;;17.50;99.90;;;;;;4999688;28;20038;-68
2021/09/01 08:10:12;;;;;;;4.32;1.02;;;17.50;99.90;;;;;;4985889;28;20041;-68
2021/09/01 08:12:37;;;;;;;9.85;1.60;;;17.60;99.90;;;;;;5000503;28;20129;-69
2021/09/01 08:15:05;;;;;;;6.15;1.15;;;17.60;99.90;;;;;;5001388;28;20113;-69
2021/09/01 08:17:31;;;;;;;3.78;0.77;;;17.70;99.90;;;;;;5003284;28;20126;-69
2021/09/01 08:19:56;;;;;;;5.85;1.10;;;17.70;99.90;;;;;;5000034;28;20054;-69
2021/09/01 08:22:22;;;;;;;4.43;1.60;;;17.90;99.90;;;;;;4998936;28;20113;-69
2021/09/01 08:24:47;;;;;;;4.57;0.75;;;17.90;99.90;;;;;;4996718;28;20049;-69
2021/09/01 08:27:13;;;;;;;8.77;1.50;;;18.10;99.90;;;;;;4996311;28;20402;-69
2021/09/01 08:29:40;;;;;;;5.35;0.68;;;18.20;99.90;;;;;;4997700;28;20074;-68
2021/09/01 08:32:06;;;;;;;6.07;1.27;;;18.20;99.90;;;;;;4994537;28;20441;-69
2021/09/01 08:34:32;;;;;;;4.82;1.05;;;18.30;99.90;;;;;;4995788;28;20089;-69
2021/09/01 08:37:00;;;;;;;5.00;0.90;;;18.30;99.90;;;;;;4996581;28;20038;-69
2021/09/01 08:39:25;;;;;;;4.75;1.00;;;18.40;99.90;;;;;;4999235;28;20033;-69
2021/09/01 08:41:52;;;;;;;5.60;1.13;;;18.50;99.90;;;;;;4982355;28;20041;-69
2021/09/01 08:44:17;;;;;;;2.97;1.35;;;18.60;99.90;;;;;;4996574;28;20084;-69
2021/09/01 08:46:46;;;;;;;8.45;1.23;;;18.70;99.90;;;;;;4997706;28;20034;-69
2021/09/01 08:49:13;;;;;;;4.60;0.77;;;18.70;99.90;;;;;;4998924;28;20034;-68
2021/09/01 08:51:39;;;;;;;9.60;1.58;;;18.70;99.90;;;;;;4997941;28;20030;-69
2021/09/01 08:54:06;;;;;;;7.05;1.05;;;18.70;99.90;;;;;;4998163;28;20509;-69
2021/09/01 08:56:32;;;;;;;3.58;1.00;;;18.70;99.90;;;;;;4999779;28;20104;-69
2021/09/01 08:58:57;;;;;;;4.88;0.75;;;18.80;99.90;;;;;;4996238;28;20494;-69
2021/09/01 09:01:54;;;;;;;3.28;0.93;;;18.80;99.90;;;;;;5002167;28;20034;-69
2021/09/01 09:04:37;;;;;;;3.42;0.55;;;18.90;99.90;;;;;;4981575;28;20037;-69
2021/09/01 09:07:05;;;;;;;8.80;1.08;;;18.80;99.90;;;;;;4998540;28;20080;-69
2021/09/01 09:09:33;;;;;;;5.35;1.25;;;18.90;99.90;;;;;;5002529;28;20849;-68
2021/09/01 09:12:01;;;;;;;3.35;0.75;;;18.90;99.90;;;;;;5001883;28;20042;-70
2021/09/01 09:14:28;;;;;;;5.40;1.02;;;18.90;99.90;;;;;;4999043;28;20042;-69
2021/09/01 09:17:12;;;;;;;5.15;1.10;;;19.00;99.90;;;;;;4998213;28;20061;-69
2021/09/01 09:19:54;;;;;;;2.90;0.90;;;19.00;99.90;;;;;;4999479;28;20042;-69
2021/09/01 09:22:27;;;;;;;7.65;1.30;;;19.00;99.90;;;;;;4998844;28;20038;-69
2021/09/01 09:25:18;;;;;;;4.85;1.20;;;18.90;99.90;;;;;;4998752;28;20034;-69
2021/09/01 09:27:49;;;;;;;3.28;0.70;;;19.00;99.90;;;;;;5002841;28;20030;-69
2021/09/01 09:30:21;;;;;;;6.63;1.00;;;19.00;99.90;;;;;;5002360;28;20038;-69
2021/09/01 09:33:13;;;;;;;8.10;1.48;;;18.90;99.90;;;;;;4999182;28;20046;-69
2021/09/01 09:35:47;;;;;;;4.18;1.00;;;18.80;99.90;;;;;;4999300;28;20042;-68
2021/09/01 09:38:15;;;;;;;4.28;1.08;;;18.80;99.90;;;;;;5000224;28;20096;-69
2021/09/01 09:40:40;;;;;;;4.38;0.93;;;18.70;99.90;;;;;;5003444;28;20026;-69
2021/09/01 09:43:22;;;;;;;3.28;0.85;;;18.70;99.90;;;;;;5000962;28;20509;-69
2021/09/01 09:45:57;;;;;;;3.63;0.82;;;18.80;99.90;;;;;;4997664;28;20510;-69
2021/09/01 09:48:28;;;;;;;3.90;0.80;;;18.70;99.90;;;;;;4998623;28;20117;-69
2021/09/01 09:50:53;;;;;;;5.03;0.90;;;18.70;99.90;;;;;;4999408;28;20042;-68
2021/09/01 09:53:30;;;;;;;6.05;0.90;;;18.80;99.90;;;;;;5005737;28;20030;-68
2021/09/01 09:56:03;;;;;;;6.25;0.88;;;18.70;99.90;;;;;;5004185;28;20044;-68
2021/09/01 09:58:31;;;;;;;4.32;0.77;;;18.70;99.90;;;;;;5002973;28;20069;-69
2021/09/01 10:00:56;;;;;;;4.68;1.58;;;18.80;99.90;;;;;;5004807;28;20475;-69
2021/09/01 10:03:22;;;;;;;3.15;0.70;;;18.80;99.90;;;;;;5001982;28;20121;-69
2021/09/01 10:05:48;;;;;;;4.50;0.82;;;18.80;99.90;;;;;;4984999;28;20061;-69
2021/09/01 10:08:13;;;;;;;2.83;0.90;;;18.80;99.90;;;;;;5003019;28;20037;-69
2021/09/01 10:10:39;;;;;;;2.63;1.02;;;19.00;99.90;;;;;;5002140;28;20026;-69
2021/09/01 10:13:06;;;;;;;2.00;0.60;;;19.10;99.90;;;;;;5003131;28;20034;-69
2021/09/01 10:15:35;;;;;;;4.05;1.02;;;19.20;99.90;;;;;;5003814;28;20144;-69
2021/09/01 10:18:07;;;;;;;5.47;1.10;;;19.40;99.90;;;;;;5002515;28;20045;-69
2021/09/01 10:20:38;;;;;;;2.75;1.05;;;19.50;99.90;;;;;;5003681;28;20033;-69
2021/09/01 10:23:06;;;;;;;3.47;1.00;;;19.60;99.90;;;;;;5002413;28;20038;-69
2021/09/01 10:25:39;;;;;;;4.45;1.20;;;19.70;99.90;;;;;;5003745;28;20124;-69
2021/09/01 10:28:19;;;;;;;4.93;0.93;;;19.70;99.90;;;;;;5002905;28;20092;-69
2021/09/01 10:31:10;;;;;;;2.95;0.65;;;19.70;99.90;;;;;;5001996;28;20478;-69
2021/09/01 10:33:37;;;;;;;4.93;0.75;;;19.70;99.90;;;;;;5002946;28;20046;-68
2021/09/01 10:36:28;;;;;;;5.45;1.55;;;19.70;99.90;;;;;;5002221;28;20372;-69
2021/09/01 10:38:55;;;;;;;1.42;0.40;;;19.80;99.90;;;;;;4997719;28;20485;-68
2021/09/01 10:41:34;;;;;;;2.78;0.70;;;19.80;99.90;;;;;;5004245;28;20054;-69
2021/09/01 10:44:12;;;;;;;2.55;0.70;;;19.90;99.90;;;;;;5001088;28;20046;-69
2021/09/01 10:46:59;;;;;;;3.40;0.73;;;20.00;99.90;;;;;;5000883;28;20038;-69
2021/09/01 10:49:27;;;;;;;1.90;0.70;;;20.10;99.90;;;;;;5000995;28;20491;-69
2021/09/01 10:51:56;;;;;;;2.90;0.77;;;20.20;99.90;;;;;;5003175;28;20124;-69
2021/09/01 10:54:31;;;;;;;4.40;0.97;;;20.30;99.90;;;;;;5000540;28;20110;-69
2021/09/01 10:56:59;;;;;;;1.95;0.50;;;20.40;99.90;;;;;;4984471;28;20286;-69
2021/09/01 10:59:29;;;;;;;5.10;0.95;;;20.50;99.90;;;;;;5000809;28;20419;-69
2021/09/01 11:02:13;;;;;;;4.82;0.82;;;20.60;99.90;;;;;;5002304;28;20638;-69
2021/09/01 11:04:50;;;;;;;2.00;0.52;;;20.70;99.90;;;;;;5000967;28;20039;-70
2021/09/01 11:07:24;;;;;;;5.45;0.98;;;20.80;99.90;;;;;;4999190;28;20091;-69
2021/09/01 11:09:55;;;;;;;2.50;0.70;;;20.80;99.90;;;;;;5002350;28;20063;-69
2021/09/01 11:12:21;;;;;;;3.00;0.43;;;20.90;99.90;;;;;;5000650;28;20022;-69
2021/09/01 11:14:51;;;;;;;3.17;0.57;;;20.90;99.90;;;;;;5001563;28;20042;-69
2021/09/01 11:17:19;;;;;;;2.15;0.77;;;20.80;99.90;;;;;;4984568;28;20038;-69
2021/09/01 11:19:50;;;;;;;2.20;0.50;;;20.80;99.90;;;;;;4999458;28;20034;-69
2021/09/01 11:22:18;;;;;;;0.50;0.25;;;20.90;99.90;;;;;;4999463;28;20030;-69
2021/09/01 11:24:45;;;;;;;0.77;0.40;;;20.90;99.90;;;;;;5002657;28;20091;-69
2021/09/01 11:27:13;;;;;;;3.08;0.55;;;21.00;99.90;;;;;;4999563;28;20038;-69
2021/09/01 11:29:39;;;;;;;5.00;0.47;;;21.10;99.90;;;;;;4991824;28;20035;-69
2021/09/01 11:32:05;;;;;;;2.35;0.93;;;21.20;99.90;;;;;;4991010;28;20092;-69
2021/09/01 11:34:31;;;;;;;3.10;0.47;;;21.30;99.90;;;;;;4995197;28;20046;-69
2021/09/01 11:36:57;;;;;;;2.30;0.22;;;21.30;99.90;;;;;;4995863;28;20057;-69
2021/09/01 11:39:23;;;;;;;2.15;0.93;;;21.30;99.90;;;;;;4998220;28;20410;-69
2021/09/01 11:42:00;;;;;;;3.03;0.80;;;21.20;99.90;;;;;;4996676;28;20031;-69
2021/09/01 11:44:26;;;;;;;1.77;1.02;;;21.10;99.90;;;;;;4999251;28;20269;-69
2021/09/01 11:46:53;;;;;;;4.15;0.65;;;21.00;99.90;;;;;;5000197;28;20663;-69
2021/09/01 11:49:18;;;;;;;2.13;0.73;;;20.70;99.90;;;;;;4994670;28;20034;-69
2021/09/01 11:51:45;;;;;;;2.38;0.50;;;20.60;99.90;;;;;;5000073;28;20033;-69
2021/09/01 11:54:13;;;;;;;1.48;0.45;;;20.40;99.90;;;;;;4999962;28;20038;-70
2021/09/01 11:56:39;;;;;;;3.40;1.10;;;20.30;99.90;;;;;;4996363;28;20038;-68
2021/09/01 11:59:09;;;;;;;3.75;0.60;;;20.20;99.90;;;;;;4998349;28;20561;-73
2021/09/01 12:01:58;;;;;;;5.07;0.55;;;20.00;99.90;;;;;;4996613;28;20897;-69
2021/09/01 12:04:25;;;;;;;2.15;0.52;;;20.10;99.90;;;;;;4987521;28;20030;-69
2021/09/01 12:07:00;;;;;;;4.68;1.73;;;20.00;99.90;;;;;;4996528;28;20034;-69
2021/09/01 12:09:27;;;;;;;2.42;0.50;;;20.00;99.90;;;;;;4998279;28;20031;-68
2021/09/01 12:12:01;;;;;;;3.08;0.82;;;20.00;99.90;;;;;;5001365;28;20032;-68
2021/09/01 12:14:32;;;;;;;3.28;0.77;;;20.10;99.90;;;;;;4995660;28;20030;-69
2021/09/01 12:17:16;;;;;;;;;;;20.00;99.90;;;;;;4997513;28;20041;-69
2021/09/01 12:20:14;;;;;;;5.10;0.50;;;20.20;99.90;;;;;;5001412;28;19925;-69
2021/09/01 12:22:45;;;;;;;5.20;0.88;;;20.40;99.90;;;;;;4999855;28;20050;-68
2021/09/01 12:25:16;;;;;;;2.95;0.32;;;20.40;99.90;;;;;;4997060;28;20501;-69
2021/09/01 12:28:07;;;;;;;2.88;0.60;;;20.50;99.90;;;;;;5009007;28;20117;-69
2021/09/01 12:30:35;;;;;;;2.78;0.57;;;20.60;99.90;;;;;;4995371;28;20523;-69
2021/09/01 12:33:03;;;;;;;4.50;0.60;;;20.70;99.90;;;;;;4999947;28;20040;-69
2021/09/01 12:35:32;;;;;;;2.97;0.80;;;20.70;99.90;;;;;;4995715;28;20040;-69
2021/09/01 12:38:00;;;;;;;3.20;0.90;;;20.70;99.90;;;;;;4997233;28;20030;-69
2021/09/01 12:40:29;;;;;;;2.63;0.40;;;20.90;99.90;;;;;;5002100;28;20045;-69
2021/09/01 12:43:19;;;;;;;2.92;0.65;;;20.80;99.90;;;;;;4997921;28;20033;-69
2021/09/01 12:45:45;;;;;;;0.98;0.50;;;20.90;99.90;;;;;;4998927;28;20038;-69
2021/09/01 12:48:16;;;;;;;2.72;0.60;;;20.90;99.90;;;;;;4994683;28;20042;-69
2021/09/01 12:50:48;;;;;;;1.23;0.25;;;20.90;99.90;;;;;;5009409;28;20710;-69